Time;durP1;ratioP1;P1;durP2;ratioP2;P2;SDS_P1;SDS_P2;PMS_P1;PMS_P2;Temp;Humidity;BMP_temperature;BMP_pressure;BME280_temperature;BME280_humidity;BME280_pressure;Samples;Min_cycle;Max_cycle;Signal;HPM_P1;HPM_P2
2023/12/22 00:03:18;;;;;;;31.42;5.43;;;9.80;99.90;;;;;;10513122;28;20059;-71
2023/12/22 00:08:20;;;;;;;21.05;4.28;;;9.90;99.90;;;;;;10503409;28;20059;-73
2023/12/22 00:13:24;;;;;;;15.07;2.50;;;10.10;99.90;;;;;;10519660;28;20507;-73
2023/12/22 00:18:26;;;;;;;25.58;6.20;;;9.90;99.90;;;;;;10525074;28;20044;-72
2023/12/22 00:23:28;;;;;;;27.25;5.35;;;10.00;99.90;;;;;;10503071;28;20048;-72
2023/12/22 00:28:32;;;;;;;19.75;4.55;;;9.80;99.90;;;;;;10514386;28;20158;-71
2023/12/22 00:33:36;;;;;;;37.17;7.07;;;9.90;99.90;;;;;;10521320;28;20414;-74
2023/12/22 00:38:38;;;;;;;24.10;5.53;;;10.00;99.90;;;;;;10515743;28;20043;-72
2023/12/22 00:43:42;;;;;;;29.27;6.10;;;9.90;99.90;;;;;;10521240;28;20044;-73
2023/12/22 00:48:44;;;;;;;30.90;4.97;;;9.60;99.90;;;;;;10518295;28;20043;-72
2023/12/22 00:53:48;;;;;;;26.65;5.38;;;9.60;99.90;;;;;;10519154;28;20142;-71
2023/12/22 00:58:51;;;;;;;31.08;6.13;;;9.70;99.90;;;;;;10516309;28;20178;-73
2023/12/22 01:03:53;;;;;;;39.70;7.50;;;9.70;99.90;;;;;;10517603;28;20132;-73
2023/12/22 01:08:58;;;;;;;16.33;4.20;;;9.80;99.90;;;;;;10515400;28;20044;-71
2023/12/22 01:14:02;;;;;;;22.00;4.13;;;10.10;99.90;;;;;;10522416;28;20056;-71
2023/12/22 01:19:05;;;;;;;22.55;4.82;;;10.00;99.90;;;;;;10523788;28;20048;-72
2023/12/22 01:24:07;;;;;;;33.17;7.23;;;10.10;99.90;;;;;;10514344;28;20051;-73
2023/12/22 01:29:11;;;;;;;42.27;6.50;;;9.60;99.90;;;;;;10529872;28;20044;-72
2023/12/22 01:34:13;;;;;;;24.30;3.88;;;9.70;99.90;;;;;;10530444;28;20048;-72
2023/12/22 01:39:16;;;;;;;38.97;6.85;;;9.60;99.90;;;;;;10519554;28;20409;-71
2023/12/22 01:44:19;;;;;;;32.03;7.68;;;9.60;99.90;;;;;;10541169;27;20048;-73
2023/12/22 01:49:23;;;;;;;42.40;7.57;;;9.90;99.90;;;;;;10522058;28;20048;-72
2023/12/22 01:54:26;;;;;;;23.77;5.25;;;9.90;99.90;;;;;;10520548;28;20056;-72
2023/12/22 01:59:34;;;;;;;18.30;3.83;;;9.90;99.90;;;;;;10529063;28;20500;-72
2023/12/22 02:04:36;;;;;;;24.02;4.10;;;9.80;99.90;;;;;;10522285;28;20162;-72
2023/12/22 02:09:40;;;;;;;22.50;4.70;;;9.70;99.90;;;;;;10521939;28;20056;-73
2023/12/22 02:14:44;;;;;;;18.63;2.67;;;10.10;99.90;;;;;;10505238;28;20051;-72
2023/12/22 02:19:49;;;;;;;21.00;2.78;;;10.30;99.90;;;;;;10520151;28;20964;-73
2023/12/22 02:24:53;;;;;;;14.43;3.03;;;10.00;99.90;;;;;;10519439;28;20054;-71
2023/12/22 02:30:02;;;;;;;23.10;5.13;;;10.00;99.90;;;;;;10522730;28;20055;-73
2023/12/22 02:35:11;;;;;;;27.23;7.75;;;9.90;99.90;;;;;;10525016;28;20054;-74
2023/12/22 02:40:17;;;;;;;18.10;3.20;;;10.00;99.90;;;;;;10521502;28;20047;-73
2023/12/22 02:45:19;;;;;;;15.65;2.47;;;9.90;99.90;;;;;;10517945;28;20051;-71
2023/12/22 02:50:22;;;;;;;28.73;4.07;;;10.00;99.90;;;;;;10521888;28;20071;-74
2023/12/22 02:55:26;;;;;;;25.85;6.80;;;10.20;99.90;;;;;;10518080;28;20060;-75
2023/12/22 03:00:28;;;;;;;21.63;3.80;;;10.20;99.90;;;;;;10518480;28;20058;-72
2023/12/22 03:05:30;;;;;;;18.58;4.32;;;9.90;99.90;;;;;;10519603;28;20055;-72
2023/12/22 03:10:34;;;;;;;25.85;5.40;;;9.90;99.90;;;;;;10523851;28;20043;-73
2023/12/22 03:15:36;;;;;;;21.65;4.13;;;10.00;99.90;;;;;;10519706;28;20558;-74
2023/12/22 03:20:39;;;;;;;27.80;6.38;;;10.10;99.90;;;;;;10519124;28;20111;-72
2023/12/22 03:25:44;;;;;;;33.15;5.13;;;10.30;99.90;;;;;;10522807;28;20052;-72
2023/12/22 03:30:46;;;;;;;23.13;4.00;;;10.10;99.90;;;;;;10522437;28;20051;-71
2023/12/22 03:36:01;;;;;;;30.45;4.60;;;10.30;99.90;;;;;;10520979;28;20043;-74
2023/12/22 03:41:04;;;;;;;22.67;4.70;;;10.00;99.90;;;;;;10522990;28;20044;-72
2023/12/22 03:46:07;;;;;;;14.15;2.40;;;10.10;99.90;;;;;;10514134;28;20055;-72
2023/12/22 03:51:13;;;;;;;20.35;3.47;;;10.10;99.90;;;;;;10523653;28;20052;-72
2023/12/22 03:56:18;;;;;;;29.38;5.15;;;10.00;99.90;;;;;;10513450;28;20135;-72
2023/12/22 04:15:33;;;;;;;26.50;5.20;;;10.10;99.90;;;;;;10607941;27;20134;-72
2023/12/22 04:20:35;;;;;;;29.88;6.50;;;10.00;99.90;;;;;;10621781;27;20049;-71
2023/12/22 04:25:37;;;;;;;29.48;5.50;;;10.10;99.90;;;;;;10618026;27;20066;-71
2023/12/22 04:30:40;;;;;;;26.05;4.78;;;10.30;99.90;;;;;;10619423;27;20077;-72
2023/12/22 04:35:45;;;;;;;37.83;3.40;;;9.90;99.90;;;;;;10620397;27;20058;-72
2023/12/22 04:40:47;;;;;;;20.70;3.47;;;10.40;99.90;;;;;;10618602;27;20132;-71
2023/12/22 04:45:51;;;;;;;24.50;3.70;;;10.20;99.90;;;;;;10604181;27;20050;-76
2023/12/22 04:50:54;;;;;;;45.67;9.02;;;10.10;99.90;;;;;;10615902;27;20479;-72
2023/12/22 04:55:56;;;;;;;41.40;8.25;;;9.90;99.90;;;;;;10619497;27;20131;-72
2023/12/22 05:01:00;;;;;;;56.43;10.57;;;10.00;99.90;;;;;;10619365;27;20113;-73
2023/12/22 05:06:02;;;;;;;58.55;10.20;;;10.00;99.90;;;;;;10620050;27;20051;-72
2023/12/22 05:11:05;;;;;;;54.47;9.70;;;9.80;99.90;;;;;;10620434;27;20543;-71
2023/12/22 05:16:08;;;;;;;43.33;5.20;;;10.10;99.90;;;;;;10606521;27;20039;-71
2023/12/22 05:21:14;;;;;;;49.25;6.78;;;9.90;99.90;;;;;;10619242;27;20048;-72
2023/12/22 05:26:19;;;;;;;50.90;7.78;;;10.20;99.90;;;;;;10583851;27;20058;-72
2023/12/22 05:31:22;;;;;;;50.97;9.93;;;10.10;99.90;;;;;;10593011;27;20455;-73
2023/12/22 05:36:25;;;;;;;69.30;13.00;;;9.90;99.90;;;;;;10606315;27;20043;-76
2023/12/22 05:41:29;;;;;;;69.38;13.95;;;10.20;99.90;;;;;;10604668;27;20456;-78
2023/12/22 05:46:36;;;;;;;65.07;8.57;;;10.00;99.90;;;;;;10603887;27;20261;-75
2023/12/22 05:51:39;;;;;;;43.78;8.40;;;10.00;99.90;;;;;;10597944;27;20051;-74
2023/12/22 05:56:42;;;;;;;73.10;10.82;;;10.10;99.90;;;;;;10607170;27;20051;-75
2023/12/22 06:01:45;;;;;;;50.83;9.43;;;10.10;99.90;;;;;;10605433;27;20056;-77
2023/12/22 06:06:47;;;;;;;54.63;9.43;;;10.20;99.90;;;;;;10600363;27;20055;-73
2023/12/22 06:11:50;;;;;;;46.53;7.43;;;10.10;99.90;;;;;;10601460;27;20055;-75
2023/12/22 06:16:56;;;;;;;56.93;9.77;;;10.00;99.90;;;;;;10601980;27;20046;-76
2023/12/22 06:21:59;;;;;;;53.72;7.55;;;10.10;99.90;;;;;;10596097;27;20359;-75
2023/12/22 06:27:02;;;;;;;51.35;8.57;;;10.00;99.90;;;;;;10594227;27;20051;-75
2023/12/22 06:32:07;;;;;;;39.77;7.83;;;10.30;99.90;;;;;;10592688;27;20071;-75
2023/12/22 06:37:10;;;;;;;42.15;7.15;;;10.20;99.90;;;;;;10587004;27;20054;-74
2023/12/22 06:42:14;;;;;;;50.60;8.30;;;10.00;99.90;;;;;;10585246;27;20035;-76
2023/12/22 06:47:18;;;;;;;55.63;6.80;;;10.20;99.90;;;;;;10600411;27;20047;-77
2023/12/22 06:52:20;;;;;;;75.60;10.65;;;10.10;99.90;;;;;;10600285;27;20413;-77
2023/12/22 06:57:22;;;;;;;46.30;6.03;;;10.10;99.90;;;;;;10597724;27;20054;-76
2023/12/22 07:02:26;;;;;;;26.93;4.10;;;10.00;99.90;;;;;;10595965;27;20050;-75
2023/12/22 07:07:31;;;;;;;35.45;7.57;;;10.20;99.90;;;;;;10593463;27;20062;-75
2023/12/22 07:12:33;;;;;;;21.00;4.28;;;10.20;99.90;;;;;;10593812;27;20053;-76
2023/12/22 07:17:39;;;;;;;59.67;8.30;;;10.10;99.90;;;;;;10592265;27;20058;-76
2023/12/22 07:22:42;;;;;;;26.77;5.85;;;9.80;99.90;;;;;;10583546;27;20047;-74
2023/12/22 07:27:44;;;;;;;48.10;9.77;;;10.00;99.90;;;;;;10591253;27;20051;-75
2023/12/22 07:32:51;;;;;;;43.13;8.50;;;10.00;99.90;;;;;;10587155;27;21308;-75
2023/12/22 07:37:53;;;;;;;40.30;8.20;;;10.10;99.90;;;;;;10591880;27;20043;-76
2023/12/22 07:42:56;;;;;;;45.55;8.43;;;9.90;99.90;;;;;;10590115;27;20046;-77
2023/12/22 07:48:00;;;;;;;44.53;7.83;;;10.00;99.90;;;;;;10589776;27;21017;-76
2023/12/22 07:53:02;;;;;;;38.22;7.03;;;9.80;99.90;;;;;;10587774;27;21040;-73
2023/12/22 07:58:05;;;;;;;40.10;6.67;;;10.00;99.90;;;;;;10587133;27;20051;-76
2023/12/22 08:03:09;;;;;;;28.88;4.30;;;9.90;99.90;;;;;;10589754;27;20062;-74
2023/12/22 08:08:11;;;;;;;31.10;5.80;;;10.00;99.90;;;;;;10591550;27;20066;-75
2023/12/22 08:13:17;;;;;;;32.60;5.90;;;10.20;99.90;;;;;;10592958;27;20546;-77
2023/12/22 08:18:21;;;;;;;32.10;8.05;;;10.20;99.90;;;;;;10583613;28;20538;-76
2023/12/22 08:23:23;;;;;;;43.45;7.45;;;10.00;99.90;;;;;;10583324;27;20173;-76
2023/12/22 08:28:26;;;;;;;33.00;6.67;;;10.10;99.90;;;;;;10593594;28;20066;-78
2023/12/22 08:33:31;;;;;;;23.85;3.65;;;10.00;99.90;;;;;;10589105;27;20043;-74
2023/12/22 08:38:33;;;;;;;25.33;4.47;;;10.00;99.90;;;;;;10600751;28;20455;-74
2023/12/22 08:43:38;;;;;;;23.20;3.60;;;10.20;99.90;;;;;;10594788;28;20150;-75
2023/12/22 08:48:44;;;;;;;30.67;5.43;;;10.20;99.90;;;;;;10588480;27;20539;-74
2023/12/22 08:53:46;;;;;;;20.92;5.00;;;10.10;99.90;;;;;;10590034;27;20058;-75
2023/12/22 08:58:51;;;;;;;20.23;4.73;;;10.20;99.90;;;;;;10592265;27;20057;-76
2023/12/22 09:03:54;;;;;;;20.17;3.92;;;10.40;99.90;;;;;;10597581;27;20055;-77
2023/12/22 09:08:56;;;;;;;15.75;2.67;;;10.50;99.90;;;;;;10599140;27;20047;-77
2023/12/22 09:13:59;;;;;;;19.20;3.45;;;10.50;99.90;;;;;;10596048;27;20051;-76
2023/12/22 09:19:06;;;;;;;21.47;3.87;;;10.50;99.90;;;;;;10599095;27;20120;-76
2023/12/22 09:24:08;;;;;;;19.80;3.30;;;10.40;99.90;;;;;;10600310;27;20123;-74
2023/12/22 09:29:11;;;;;;;47.97;5.43;;;10.60;99.90;;;;;;10606849;27;20047;-74
2023/12/22 09:34:15;;;;;;;16.60;2.72;;;10.40;99.90;;;;;;10606962;27;20386;-78
2023/12/22 09:39:17;;;;;;;24.38;4.28;;;10.60;99.90;;;;;;10603885;27;20571;-74
2023/12/22 09:44:21;;;;;;;32.53;6.60;;;10.60;99.90;;;;;;10598006;27;20047;-79
2023/12/22 09:49:25;;;;;;;20.17;3.08;;;10.70;99.90;;;;;;10599960;27;20059;-77
2023/12/22 09:54:28;;;;;;;24.42;3.00;;;10.60;99.90;;;;;;10591808;27;20069;-77
2023/12/22 09:59:31;;;;;;;21.67;3.83;;;10.60;99.90;;;;;;10600819;27;20074;-76
2023/12/22 10:04:35;;;;;;;17.60;2.22;;;10.70;99.90;;;;;;10598336;27;20039;-74
2023/12/22 10:09:37;;;;;;;26.77;5.03;;;10.80;99.90;;;;;;10584636;27;20107;-76
2023/12/22 10:14:41;;;;;;;25.67;5.85;;;10.80;99.90;;;;;;10601715;27;20055;-79
2023/12/22 10:19:44;;;;;;;12.65;2.28;;;10.90;99.90;;;;;;10596942;27;20072;-73
2023/12/22 10:24:47;;;;;;;25.30;3.83;;;11.00;99.90;;;;;;10593755;27;20058;-75
2023/12/22 10:29:50;;;;;;;;;;;11.00;99.90;;;;;;10595091;27;20516;-73
2023/12/22 10:34:55;;;;;;;19.80;4.70;;;11.10;99.90;;;;;;10594630;27;20435;-77
2023/12/22 10:39:58;;;;;;;25.23;4.72;;;11.20;99.90;;;;;;10588270;27;20051;-74
2023/12/22 10:45:02;;;;;;;23.20;4.10;;;10.90;99.90;;;;;;10594824;27;20044;-77
2023/12/22 10:50:07;;;;;;;24.52;4.57;;;10.90;99.90;;;;;;10596164;27;20084;-72
2023/12/22 10:55:10;;;;;;;24.83;4.00;;;11.00;99.90;;;;;;10595515;27;20055;-75
2023/12/22 11:00:16;;;;;;;14.35;3.92;;;10.90;99.90;;;;;;10595519;27;20047;-73
2023/12/22 11:05:22;;;;;;;39.10;5.03;;;11.00;99.90;;;;;;10595347;27;20046;-76
2023/12/22 11:10:26;;;;;;;26.67;4.35;;;11.10;99.90;;;;;;10593651;27;20047;-74
2023/12/22 11:15:29;;;;;;;20.90;4.30;;;10.90;99.90;;;;;;10591324;27;20531;-75
2023/12/22 11:20:38;;;;;;;22.13;3.40;;;10.80;99.90;;;;;;10592834;27;20055;-77
2023/12/22 11:25:41;;;;;;;28.90;3.50;;;11.00;99.90;;;;;;10591120;27;20051;-77
2023/12/22 11:30:44;;;;;;;26.40;3.83;;;11.00;99.90;;;;;;10595778;27;20065;-76
2023/12/22 11:35:51;;;;;;;;;;;10.90;99.90;;;;;;10594228;27;20066;-76
2023/12/22 11:40:55;;;;;;;32.35;4.40;;;11.00;99.90;;;;;;10590147;27;19923;-76
2023/12/22 11:46:01;;;;;;;23.85;4.78;;;11.30;99.90;;;;;;10594826;27;20698;-74
2023/12/22 11:51:14;;;;;;;39.70;5.45;;;11.00;99.90;;;;;;10595192;27;20047;-75
2023/12/22 11:56:18;;;;;;;10.32;1.92;;;11.30;99.90;;;;;;10594065;27;20406;-74
2023/12/22 12:01:21;;;;;;;35.50;5.50;;;11.10;99.90;;;;;;10591562;27;20082;-76
2023/12/22 12:06:33;;;;;;;23.23;4.15;;;11.10;99.90;;;;;;10588353;27;20057;-75
2023/12/22 12:12:10;;;;;;;20.73;3.40;;;11.00;99.90;;;;;;10578818;27;20051;-77
2023/12/22 12:17:13;;;;;;;27.38;5.95;;;11.00;99.90;;;;;;10589284;28;20062;-76
2023/12/22 12:22:16;;;;;;;31.40;5.68;;;11.30;99.90;;;;;;10584592;28;20046;-75
2023/12/22 12:27:20;;;;;;;25.17;4.47;;;11.30;99.90;;;;;;10591436;28;20435;-76
2023/12/22 12:32:25;;;;;;;27.08;5.28;;;11.30;99.90;;;;;;10589333;27;20106;-76
2023/12/22 12:37:31;;;;;;;22.35;3.88;;;11.10;99.90;;;;;;10595360;27;20160;-76
2023/12/22 12:42:33;;;;;;;24.77;3.13;;;11.10;99.90;;;;;;10595023;27;20043;-72
2023/12/22 12:47:36;;;;;;;26.13;4.43;;;11.10;99.90;;;;;;10597305;27;20103;-77
2023/12/22 12:52:40;;;;;;;30.05;6.10;;;11.20;99.90;;;;;;10598420;27;20058;-71
2023/12/22 12:57:44;;;;;;;23.13;2.58;;;11.00;99.90;;;;;;10583052;27;20142;-74
2023/12/22 13:02:46;;;;;;;22.85;5.10;;;11.20;99.90;;;;;;10594245;27;20306;-74
2023/12/22 13:07:50;;;;;;;31.97;5.30;;;11.50;99.90;;;;;;10600154;27;20126;-72
2023/12/22 13:12:57;;;;;;;36.95;6.32;;;11.20;99.90;;;;;;10599374;27;20392;-72
2023/12/22 13:17:59;;;;;;;30.80;4.80;;;11.30;99.90;;;;;;10597757;27;20051;-73
2023/12/22 13:23:03;;;;;;;18.30;3.78;;;11.20;99.90;;;;;;10596005;27;20054;-73
2023/12/22 13:28:06;;;;;;;31.38;4.65;;;11.50;99.90;;;;;;10594039;27;20406;-74
2023/12/22 13:33:10;;;;;;;24.52;3.55;;;11.60;99.90;;;;;;10595552;27;20062;-72
2023/12/22 13:38:14;;;;;;;39.80;6.15;;;11.50;99.90;;;;;;10596348;27;20050;-71
2023/12/22 13:43:16;;;;;;;32.65;4.40;;;11.30;99.90;;;;;;10596035;27;20047;-70
2023/12/22 13:48:18;;;;;;;39.27;6.00;;;11.40;99.90;;;;;;10598623;27;20055;-74
2023/12/22 13:53:22;;;;;;;43.70;5.63;;;11.30;99.90;;;;;;10593192;27;20130;-72
2023/12/22 13:58:24;;;;;;;19.08;3.55;;;11.40;99.90;;;;;;10597573;27;20051;-72
2023/12/22 14:03:26;;;;;;;38.13;6.80;;;11.40;99.90;;;;;;10594702;27;20071;-74
2023/12/22 14:08:30;;;;;;;36.42;4.05;;;11.40;99.90;;;;;;10591761;27;20358;-73
2023/12/22 14:13:34;;;;;;;24.63;3.60;;;11.70;99.90;;;;;;10590835;27;20047;-73
2023/12/22 14:18:36;;;;;;;38.63;6.90;;;11.60;99.90;;;;;;10594322;27;20051;-71
2023/12/22 14:23:39;;;;;;;24.75;4.05;;;11.50;99.90;;;;;;10591372;27;20070;-70
2023/12/22 14:28:42;;;;;;;19.17;2.60;;;11.60;99.90;;;;;;10594178;27;20054;-72
2023/12/22 14:33:44;;;;;;;26.35;4.32;;;11.60;99.90;;;;;;10593734;27;20051;-75
2023/12/22 14:38:47;;;;;;;30.90;5.60;;;11.60;99.90;;;;;;10598124;27;20058;-73
2023/12/22 14:43:50;;;;;;;28.05;3.13;;;11.50;99.90;;;;;;10598280;27;20051;-72
2023/12/22 14:48:53;;;;;;;35.92;5.85;;;11.50;99.90;;;;;;10594462;27;20089;-74
2023/12/22 14:53:57;;;;;;;34.20;5.30;;;11.50;99.90;;;;;;10596897;27;20039;-73
2023/12/22 14:58:59;;;;;;;27.92;5.43;;;11.40;99.90;;;;;;10590439;27;20129;-76
2023/12/22 15:04:02;;;;;;;22.10;5.23;;;11.60;99.90;;;;;;10593687;27;20701;-75
2023/12/22 15:09:06;;;;;;;;;;;11.60;99.90;;;;;;10594540;27;20557;-73
2023/12/22 15:14:07;;;;;;;17.42;2.88;;;11.40;99.90;;;;;;10594872;27;19924;-73
2023/12/22 15:19:10;;;;;;;24.35;3.78;;;11.50;99.90;;;;;;10591190;27;20563;-72
2023/12/22 15:24:13;;;;;;;30.97;6.43;;;11.30;99.90;;;;;;10593336;27;20047;-73
2023/12/22 15:29:16;;;;;;;32.80;5.55;;;11.10;99.90;;;;;;10591119;27;20043;-72
2023/12/22 15:34:18;;;;;;;37.08;6.85;;;11.20;99.90;;;;;;10597219;27;20035;-74
2023/12/22 15:39:22;;;;;;;20.42;5.18;;;11.30;99.90;;;;;;10593008;27;20047;-72
2023/12/22 15:44:24;;;;;;;35.53;7.35;;;11.30;99.90;;;;;;10595179;27;20043;-73
2023/12/22 15:49:27;;;;;;;34.47;5.60;;;10.90;99.90;;;;;;10592931;27;20197;-74
2023/12/22 15:54:31;;;;;;;32.25;6.80;;;11.10;99.90;;;;;;10589134;27;20218;-74
2023/12/22 15:59:33;;;;;;;36.05;7.65;;;11.10;99.90;;;;;;10592892;27;20544;-75
2023/12/22 16:04:36;;;;;;;17.60;3.77;;;11.00;99.90;;;;;;10586238;27;20047;-74
2023/12/22 16:09:39;;;;;;;34.77;5.67;;;11.20;99.90;;;;;;10577174;27;20517;-73
2023/12/22 16:14:42;;;;;;;20.35;3.35;;;11.30;99.90;;;;;;10585752;27;20043;-74
2023/12/22 16:19:44;;;;;;;34.90;5.87;;;11.30;99.90;;;;;;10588623;27;20051;-74
2023/12/22 16:24:48;;;;;;;35.00;6.83;;;11.10;99.90;;;;;;10592723;27;20469;-72
2023/12/22 16:29:50;;;;;;;19.17;3.92;;;11.10;99.90;;;;;;10580744;28;20051;-72
2023/12/22 16:34:52;;;;;;;19.23;2.97;;;11.10;99.90;;;;;;10586249;27;20050;-75
2023/12/22 16:39:57;;;;;;;34.20;6.18;;;11.00;99.90;;;;;;10586034;27;20051;-75
2023/12/22 16:44:59;;;;;;;39.85;7.45;;;11.20;99.90;;;;;;10585446;27;20497;-75
2023/12/22 16:50:01;;;;;;;32.40;5.10;;;11.20;99.90;;;;;;10589445;27;20073;-75
2023/12/22 16:55:05;;;;;;;20.40;3.38;;;11.30;99.90;;;;;;10582761;27;20444;-75
2023/12/22 17:00:09;;;;;;;29.73;6.78;;;11.10;99.90;;;;;;10587248;27;20054;-76
2023/12/22 17:05:12;;;;;;;36.60;5.63;;;10.90;99.90;;;;;;10591265;27;20310;-72
2023/12/22 17:10:16;;;;;;;25.75;4.60;;;10.90;99.90;;;;;;10584717;27;20050;-72
2023/12/22 17:15:18;;;;;;;22.05;3.88;;;10.80;99.90;;;;;;10582950;27;20058;-70
2023/12/22 17:20:20;;;;;;;40.53;6.43;;;10.80;99.90;;;;;;10586796;27;20057;-74
2023/12/22 17:25:24;;;;;;;28.08;4.70;;;10.90;99.90;;;;;;10589543;27;20500;-72
2023/12/22 17:30:27;;;;;;;28.77;6.40;;;10.80;99.90;;;;;;10591668;27;20120;-71
2023/12/22 17:35:29;;;;;;;28.42;5.47;;;10.80;99.90;;;;;;10593363;27;20040;-73
2023/12/22 17:40:33;;;;;;;25.63;4.78;;;10.70;99.90;;;;;;10591412;27;20051;-76
2023/12/22 17:45:35;;;;;;;32.35;5.68;;;10.80;99.90;;;;;;10597797;27;20256;-70
2023/12/22 17:50:38;;;;;;;37.75;7.22;;;11.00;99.90;;;;;;10594528;27;20058;-74
2023/12/22 17:55:41;;;;;;;28.73;6.33;;;11.00;99.90;;;;;;10595786;27;20127;-74
2023/12/22 18:00:44;;;;;;;27.95;5.93;;;11.10;99.90;;;;;;10595274;27;20047;-73
2023/12/22 18:05:46;;;;;;;25.08;4.30;;;10.70;99.90;;;;;;10592095;27;20168;-73
2023/12/22 18:10:50;;;;;;;21.60;4.23;;;10.90;99.90;;;;;;10590700;27;20420;-71
2023/12/22 18:15:54;;;;;;;30.50;3.80;;;11.00;99.90;;;;;;10593418;27;20082;-74
2023/12/22 18:20:56;;;;;;;30.00;5.38;;;10.90;99.90;;;;;;10601609;27;20055;-74
2023/12/22 18:26:00;;;;;;;30.03;5.53;;;10.80;99.90;;;;;;10599335;27;20512;-70
2023/12/22 18:31:03;;;;;;;32.03;6.15;;;10.80;99.90;;;;;;10597558;27;20592;-72
2023/12/22 18:36:06;;;;;;;20.38;4.28;;;10.90;99.90;;;;;;10598095;27;20057;-72
2023/12/22 18:41:10;;;;;;;25.60;5.57;;;11.00;99.90;;;;;;10589943;27;20058;-73
2023/12/22 18:46:12;;;;;;;36.88;5.85;;;11.10;99.90;;;;;;10596604;27;20566;-75
2023/12/22 18:51:15;;;;;;;27.80;6.05;;;10.80;99.90;;;;;;10595790;27;20294;-66
2023/12/22 18:56:22;;;;;;;29.10;5.00;;;10.80;99.90;;;;;;10595786;27;20043;-68
2023/12/22 19:01:24;;;;;;;39.25;7.60;;;10.70;99.90;;;;;;10588483;27;20059;-69
2023/12/22 19:06:26;;;;;;;29.83;5.88;;;10.80;99.90;;;;;;10589281;27;20060;-68
2023/12/22 19:11:31;;;;;;;33.08;4.47;;;10.70;99.90;;;;;;10595243;27;20070;-67
2023/12/22 19:16:33;;;;;;;22.58;4.07;;;10.70;99.90;;;;;;10593855;27;20035;-67
2023/12/22 19:21:36;;;;;;;27.40;4.57;;;10.80;99.90;;;;;;10592342;27;20053;-65
2023/12/22 19:26:41;;;;;;;31.48;5.45;;;10.80;99.90;;;;;;10577613;27;20600;-69
2023/12/22 19:31:43;;;;;;;33.67;4.18;;;10.70;99.90;;;;;;10585542;27;20517;-70
2023/12/22 19:36:45;;;;;;;25.85;4.57;;;10.70;99.90;;;;;;10588896;27;20054;-69
2023/12/22 19:41:49;;;;;;;26.07;4.10;;;10.60;99.90;;;;;;10579986;27;20055;-68
2023/12/22 19:46:52;;;;;;;38.60;5.60;;;10.80;99.90;;;;;;10584028;27;20051;-72
2023/12/22 19:51:55;;;;;;;22.52;4.30;;;10.50;99.90;;;;;;10576362;27;20054;-69
2023/12/22 19:56:58;;;;;;;27.92;4.22;;;10.50;99.90;;;;;;10581351;27;20463;-66
2023/12/22 20:02:00;;;;;;;29.25;3.97;;;10.50;99.90;;;;;;10582080;27;20047;-66
2023/12/22 20:07:02;;;;;;;30.52;5.00;;;10.70;99.90;;;;;;10576742;27;20062;-66
2023/12/22 20:12:06;;;;;;;35.45;4.18;;;10.70;99.90;;;;;;10576948;27;20832;-67
2023/12/22 20:17:09;;;;;;;17.48;3.50;;;10.60;99.90;;;;;;10577127;27;20043;-68
2023/12/22 20:22:11;;;;;;;28.75;4.53;;;10.70;99.90;;;;;;10572462;27;20059;-69
2023/12/22 20:27:15;;;;;;;34.20;5.85;;;10.60;99.90;;;;;;10579051;27;20344;-67
2023/12/22 20:32:17;;;;;;;19.02;3.95;;;10.60;99.90;;;;;;10577104;27;20054;-68
2023/12/22 20:37:19;;;;;;;31.73;5.57;;;10.60;99.90;;;;;;10579232;27;20504;-67
2023/12/22 20:42:22;;;;;;;14.98;2.88;;;10.40;99.90;;;;;;10576701;27;20051;-68
2023/12/22 20:47:24;;;;;;;39.42;4.28;;;10.50;99.90;;;;;;10576327;27;20493;-68
2023/12/22 20:52:27;;;;;;;16.88;3.38;;;10.50;99.90;;;;;;10571766;27;20634;-68
2023/12/22 20:57:30;;;;;;;39.72;5.85;;;10.60;99.90;;;;;;10584325;27;20054;-67
2023/12/22 21:02:33;;;;;;;17.40;3.97;;;10.40;99.90;;;;;;10581448;27;20054;-67
2023/12/22 21:07:35;;;;;;;23.83;4.07;;;10.50;99.90;;;;;;10583176;27;20054;-69
2023/12/22 21:12:39;;;;;;;16.47;4.00;;;10.50;99.90;;;;;;10573510;27;20091;-68
2023/12/22 21:17:46;;;;;;;22.67;3.38;;;10.40;99.90;;;;;;10582975;27;20099;-68
2023/12/22 21:22:48;;;;;;;20.10;3.03;;;10.40;99.90;;;;;;10586263;27;20044;-68
2023/12/22 21:27:52;;;;;;;20.75;2.90;;;10.60;99.90;;;;;;10584060;27;20135;-67
2023/12/22 21:32:55;;;;;;;46.25;4.00;;;10.80;99.90;;;;;;10588583;27;20108;-66
2023/12/22 21:37:57;;;;;;;35.45;7.05;;;10.80;99.90;;;;;;10596374;27;20054;-68
2023/12/22 21:43:01;;;;;;;30.33;4.68;;;10.60;99.90;;;;;;10595213;27;20051;-66
2023/12/22 21:48:03;;;;;;;33.50;7.13;;;10.60;99.90;;;;;;10591705;27;20055;-67
2023/12/22 21:53:06;;;;;;;19.73;3.67;;;10.50;99.90;;;;;;10596610;27;20058;-67
2023/12/22 21:58:11;;;;;;;17.88;2.97;;;10.70;99.90;;;;;;10597914;27;20127;-67
2023/12/22 22:03:13;;;;;;;25.25;3.67;;;10.60;99.90;;;;;;10594922;27;20510;-67
2023/12/22 22:08:15;;;;;;;24.63;3.25;;;10.60;99.90;;;;;;10595991;27;20055;-68
2023/12/22 22:13:18;;;;;;;24.92;4.43;;;10.70;99.90;;;;;;10594817;27;20067;-67
2023/12/22 22:18:22;;;;;;;22.25;3.60;;;10.60;99.90;;;;;;10597636;27;20378;-67
2023/12/22 22:23:25;;;;;;;29.42;4.13;;;10.50;99.90;;;;;;10592171;27;20353;-66
2023/12/22 22:28:30;;;;;;;22.00;4.82;;;10.40;99.90;;;;;;10593348;27;20532;-68
2023/12/22 22:33:32;;;;;;;23.77;3.83;;;10.40;99.90;;;;;;10581665;27;20098;-67
2023/12/22 22:38:34;;;;;;;40.33;4.22;;;10.40;99.90;;;;;;10585616;27;20050;-68
2023/12/22 22:43:37;;;;;;;22.10;3.85;;;10.30;99.90;;;;;;10575812;27;20191;-68
2023/12/22 22:48:39;;;;;;;26.90;4.45;;;10.40;99.90;;;;;;10577727;27;20054;-68
2023/12/22 22:53:42;;;;;;;16.67;2.83;;;10.40;99.90;;;;;;10592861;27;20055;-68
2023/12/22 22:58:45;;;;;;;20.67;3.05;;;10.40;99.90;;;;;;10585636;27;20654;-68
2023/12/22 23:03:47;;;;;;;26.48;3.83;;;10.30;99.90;;;;;;10583468;27;20062;-69
2023/12/22 23:08:51;;;;;;;21.80;3.67;;;10.40;99.90;;;;;;10578228;27;20123;-68
2023/12/22 23:13:57;;;;;;;17.73;3.38;;;10.70;99.90;;;;;;10582122;27;20066;-68
2023/12/22 23:18:59;;;;;;;11.73;3.10;;;10.30;99.90;;;;;;10583684;27;20113;-68
2023/12/22 23:24:03;;;;;;;26.10;4.77;;;10.40;99.90;;;;;;10582005;27;20124;-67
2023/12/22 23:29:07;;;;;;;29.13;4.15;;;10.40;99.90;;;;;;10583561;27;20135;-68
2023/12/22 23:34:09;;;;;;;22.77;4.00;;;10.10;99.90;;;;;;10587257;27;20059;-67
2023/12/22 23:39:11;;;;;;;29.63;5.27;;;10.20;99.90;;;;;;10589359;27;20039;-66
2023/12/22 23:44:15;;;;;;;26.20;3.17;;;10.20;99.90;;;;;;10585096;27;20051;-68
2023/12/22 23:49:17;;;;;;;11.90;1.95;;;10.30;99.90;;;;;;10581495;27;20051;-68
2023/12/22 23:54:19;;;;;;;21.80;3.97;;;10.30;99.90;;;;;;10583153;27;20055;-68
2023/12/22 23:59:23;;;;;;;23.02;2.42;;;10.00;99.90;;;;;;10584535;27;20058;-68
